createdAt,value
2017-10-14T00:00:34.317Z,5.43
2017-10-14T00:03:01.812Z,6.00
2017-10-14T00:05:29.282Z,5.97
2017-10-14T00:07:56.758Z,5.60
2017-10-14T00:10:24.236Z,5.50
2017-10-14T00:12:51.808Z,5.40
2017-10-14T00:15:19.296Z,5.00
2017-10-14T00:17:46.785Z,5.17
2017-10-14T00:20:14.257Z,4.97
2017-10-14T00:22:41.736Z,4.97
2017-10-14T00:25:09.196Z,4.80
2017-10-14T00:27:36.676Z,5.37
2017-10-14T00:30:04.135Z,5.40
2017-10-14T00:32:31.664Z,5.27
2017-10-14T00:34:59.134Z,5.27
2017-10-14T00:37:26.609Z,5.00
2017-10-14T00:39:54.093Z,4.63
2017-10-14T00:42:21.622Z,5.27
2017-10-14T00:44:49.089Z,4.33
2017-10-14T00:47:16.569Z,4.93
2017-10-14T00:49:44.027Z,5.30
2017-10-14T00:52:11.501Z,4.53
2017-10-14T00:54:38.985Z,4.23
2017-10-14T00:57:06.496Z,5.60
2017-10-14T00:59:33.970Z,5.00
2017-10-14T01:02:01.455Z,4.90
2017-10-14T01:04:28.931Z,4.50
2017-10-14T01:06:56.383Z,5.03
2017-10-14T01:09:23.886Z,5.10
2017-10-14T01:11:51.356Z,4.83
2017-10-14T01:14:18.845Z,4.57
2017-10-14T01:16:46.299Z,5.10
2017-10-14T01:19:13.756Z,4.83
2017-10-14T01:21:41.222Z,5.10
2017-10-14T01:24:08.704Z,5.37
2017-10-14T01:26:36.157Z,4.80
2017-10-14T01:29:03.641Z,5.50
2017-10-14T01:31:31.136Z,5.80
2017-10-14T01:33:58.686Z,5.40
2017-10-14T01:36:26.224Z,5.90
2017-10-14T01:38:53.730Z,5.07
2017-10-14T01:41:21.203Z,5.83
2017-10-14T01:43:48.680Z,5.40
2017-10-14T01:46:16.189Z,6.03
2017-10-14T01:48:43.659Z,6.70
2017-10-14T01:51:11.124Z,6.57
2017-10-14T01:53:38.601Z,6.20
2017-10-14T01:56:06.444Z,6.10
2017-10-14T01:58:33.936Z,6.30
2017-10-14T02:01:01.418Z,6.50
2017-10-14T02:03:28.890Z,6.23
2017-10-14T02:05:56.344Z,6.10
2017-10-14T02:08:23.827Z,6.43
2017-10-14T02:10:51.301Z,6.47
2017-10-14T02:13:18.757Z,7.33
2017-10-14T02:15:46.226Z,5.67
2017-10-14T02:18:13.704Z,6.23
2017-10-14T02:20:41.168Z,5.87
2017-10-14T02:23:08.685Z,6.00
2017-10-14T02:25:36.151Z,6.30
2017-10-14T02:28:03.625Z,7.47
2017-10-14T02:30:31.090Z,7.10
2017-10-14T02:32:58.541Z,7.10
2017-10-14T02:35:26.001Z,7.20
2017-10-14T02:37:53.472Z,7.80
2017-10-14T02:40:20.966Z,7.20
2017-10-14T02:42:48.518Z,7.73
2017-10-14T02:45:16.014Z,7.50
2017-10-14T02:47:43.503Z,8.20
2017-10-14T02:50:10.991Z,6.80
2017-10-14T02:52:38.519Z,7.87
2017-10-14T02:55:06.025Z,7.50
2017-10-14T02:57:33.536Z,7.97
2017-10-14T03:00:01.040Z,7.07
2017-10-14T03:02:28.502Z,7.47
2017-10-14T03:07:29.805Z,8.20
2017-10-14T03:09:57.262Z,7.80
2017-10-14T03:12:25.386Z,8.20
2017-10-14T03:14:53.604Z,7.47
2017-10-14T03:17:21.067Z,7.00
2017-10-14T03:19:48.534Z,7.70
2017-10-14T03:22:16.039Z,7.27
2017-10-14T03:24:43.498Z,7.80
2017-10-14T03:27:10.974Z,8.87
2017-10-14T03:29:38.498Z,9.07
2017-10-14T03:32:05.976Z,8.53
2017-10-14T03:34:33.447Z,7.90
2017-10-14T03:37:00.932Z,7.70
2017-10-14T03:39:28.397Z,8.70
2017-10-14T03:41:55.857Z,8.43
2017-10-14T03:44:23.345Z,8.53
2017-10-14T03:46:50.823Z,8.50
2017-10-14T03:49:18.306Z,8.40
2017-10-14T03:51:45.817Z,7.23
2017-10-14T03:54:13.294Z,8.00
2017-10-14T03:56:40.759Z,7.67
2017-10-14T03:59:08.261Z,8.20
2017-10-14T04:01:35.759Z,8.57
2017-10-14T04:04:03.245Z,8.03
2017-10-14T04:06:30.749Z,8.67
2017-10-14T04:08:58.221Z,8.50
2017-10-14T04:11:25.700Z,8.87
2017-10-14T04:13:53.170Z,9.17
2017-10-14T04:16:20.640Z,8.77
2017-10-14T04:18:48.609Z,8.63
2017-10-14T04:21:16.113Z,7.93
2017-10-14T04:23:43.580Z,8.23
2017-10-14T04:26:11.041Z,8.90
2017-10-14T04:28:38.533Z,8.70
2017-10-14T04:31:06.011Z,8.53
2017-10-14T04:33:33.490Z,8.83
2017-10-14T04:36:00.987Z,8.37
2017-10-14T04:38:28.451Z,8.17
2017-10-14T04:40:55.930Z,8.93
2017-10-14T04:43:23.424Z,7.63
2017-10-14T04:45:50.910Z,8.80
2017-10-14T04:48:18.415Z,8.23
2017-10-14T04:50:45.907Z,9.47
2017-10-14T04:53:13.370Z,10.57
2017-10-14T04:55:40.842Z,8.63
2017-10-14T04:58:08.348Z,8.30
2017-10-14T05:00:35.808Z,9.83
2017-10-14T05:03:03.315Z,9.80
2017-10-14T05:05:30.896Z,10.93
2017-10-14T05:07:58.375Z,9.37
2017-10-14T05:10:25.851Z,10.50
2017-10-14T05:12:53.687Z,10.50
2017-10-14T05:15:21.158Z,11.17
2017-10-14T05:17:48.634Z,10.27
2017-10-14T05:20:16.131Z,9.70
2017-10-14T05:22:43.588Z,9.83
2017-10-14T05:25:11.057Z,10.63
2017-10-14T05:27:38.537Z,8.37
2017-10-14T05:30:06.030Z,10.30
2017-10-14T05:32:33.512Z,9.20
2017-10-14T05:35:01.026Z,9.67
2017-10-14T05:37:28.626Z,11.63
2017-10-14T05:39:56.111Z,11.77
2017-10-14T05:42:23.587Z,10.40
2017-10-14T05:44:51.069Z,11.33
2017-10-14T05:47:18.547Z,10.87
2017-10-14T05:49:46.037Z,11.10
2017-10-14T05:52:13.522Z,9.70
2017-10-14T05:54:40.988Z,10.77
2017-10-14T05:57:08.484Z,10.60
2017-10-14T05:59:35.964Z,10.97
2017-10-14T06:02:03.470Z,10.20
2017-10-14T06:04:31.021Z,10.70
2017-10-14T06:06:58.490Z,11.10
2017-10-14T06:09:25.976Z,11.20
2017-10-14T06:11:53.459Z,10.97
2017-10-14T06:14:20.925Z,10.50
2017-10-14T06:16:48.841Z,11.73
2017-10-14T06:19:17.190Z,11.17
2017-10-14T06:21:44.679Z,11.07
2017-10-14T06:24:12.166Z,11.47
2017-10-14T06:26:39.693Z,12.03
2017-10-14T06:29:07.157Z,9.37
2017-10-14T06:31:34.654Z,10.50
2017-10-14T06:34:02.218Z,11.70
2017-10-14T06:36:29.704Z,11.90
2017-10-14T06:38:57.177Z,10.77
2017-10-14T06:41:24.705Z,11.80
2017-10-14T06:43:52.186Z,11.27
2017-10-14T06:46:19.679Z,10.57
2017-10-14T06:48:47.249Z,9.93
2017-10-14T06:51:14.777Z,9.13
2017-10-14T06:53:42.272Z,9.40
2017-10-14T06:56:09.777Z,8.27
2017-10-14T06:58:37.239Z,8.13
2017-10-14T07:01:04.712Z,8.07
2017-10-14T07:03:32.219Z,7.63
2017-10-14T07:05:59.700Z,6.87
2017-10-14T07:08:27.170Z,7.20
2017-10-14T07:10:54.656Z,6.27
2017-10-14T07:13:22.119Z,6.40
2017-10-14T07:15:49.602Z,5.90
2017-10-14T07:18:17.106Z,6.70
2017-10-14T07:20:44.623Z,6.53
2017-10-14T07:23:12.162Z,5.83
2017-10-14T07:25:39.638Z,7.20
2017-10-14T07:28:07.090Z,5.77
2017-10-14T07:30:34.563Z,6.13
2017-10-14T07:33:02.066Z,5.53
2017-10-14T07:35:29.540Z,5.30
2017-10-14T07:37:57.010Z,6.50
2017-10-14T07:40:24.511Z,4.60
2017-10-14T07:42:52.020Z,4.47
2017-10-14T07:45:19.497Z,5.30
2017-10-14T07:47:46.981Z,4.10
2017-10-14T07:50:14.490Z,5.50
2017-10-14T07:52:41.939Z,4.70
2017-10-14T07:55:09.417Z,5.00
2017-10-14T07:57:36.879Z,4.53
2017-10-14T08:00:04.373Z,3.77
2017-10-14T08:02:31.909Z,4.40
2017-10-14T08:04:59.416Z,4.10
2017-10-14T08:07:26.893Z,4.27
2017-10-14T08:09:54.415Z,3.90
2017-10-14T08:12:21.885Z,3.80
2017-10-14T08:14:49.356Z,3.90
2017-10-14T08:17:16.858Z,3.80
2017-10-14T08:19:44.350Z,4.20
2017-10-14T08:22:11.858Z,3.60
2017-10-14T08:24:39.412Z,3.40
2017-10-14T08:27:06.912Z,3.37
2017-10-14T08:29:34.475Z,3.10
2017-10-14T08:32:01.999Z,3.43
2017-10-14T08:34:29.536Z,3.50
2017-10-14T08:36:57.002Z,4.20
2017-10-14T08:39:24.489Z,3.20
2017-10-14T08:41:51.957Z,3.73
2017-10-14T08:44:19.550Z,3.40
2017-10-14T08:46:47.030Z,3.53
2017-10-14T08:49:14.504Z,3.57
2017-10-14T08:51:42.010Z,4.10
2017-10-14T08:54:09.483Z,3.77
2017-10-14T08:56:36.975Z,3.10
2017-10-14T08:59:04.535Z,4.53
2017-10-14T09:01:32.040Z,3.40
2017-10-14T09:03:59.526Z,3.90
2017-10-14T09:06:27.020Z,3.63
2017-10-14T09:08:54.504Z,3.00
2017-10-14T09:11:21.979Z,3.47
2017-10-14T09:13:49.452Z,3.37
2017-10-14T09:16:16.919Z,2.63
2017-10-14T09:18:44.412Z,3.00
2017-10-14T09:21:11.891Z,3.30
2017-10-14T09:23:39.364Z,3.20
2017-10-14T09:26:06.853Z,3.70
2017-10-14T09:28:34.346Z,3.00
2017-10-14T09:31:01.844Z,2.57
2017-10-14T09:33:29.595Z,2.43
2017-10-14T09:35:57.065Z,2.60
2017-10-14T09:38:24.536Z,2.40
2017-10-14T09:40:52.097Z,2.73
2017-10-14T09:43:19.570Z,2.70
2017-10-14T09:45:47.143Z,2.93
2017-10-14T09:48:14.632Z,3.10
2017-10-14T09:50:42.117Z,4.07
2017-10-14T09:53:09.617Z,3.40
2017-10-14T09:55:37.076Z,3.70
2017-10-14T09:58:04.540Z,3.23
2017-10-14T10:00:32.113Z,4.00
2017-10-14T10:02:59.576Z,3.70
2017-10-14T10:05:27.035Z,3.90
2017-10-14T10:07:54.522Z,4.00
2017-10-14T10:10:21.990Z,3.40
2017-10-14T10:12:49.478Z,3.30
2017-10-14T10:15:16.981Z,3.43
2017-10-14T10:17:44.464Z,3.63
2017-10-14T10:20:11.934Z,3.80
2017-10-14T10:22:39.421Z,3.60
2017-10-14T10:25:06.950Z,4.10
2017-10-14T10:27:34.423Z,4.50
2017-10-14T10:30:01.902Z,3.80
2017-10-14T10:32:29.389Z,4.50
2017-10-14T10:34:56.895Z,4.70
2017-10-14T10:37:24.399Z,4.10
2017-10-14T10:39:51.873Z,4.20
2017-10-14T10:42:19.337Z,5.00
2017-10-14T10:44:46.842Z,4.07
2017-10-14T10:47:14.297Z,4.37
2017-10-14T10:49:41.757Z,4.33
2017-10-14T10:52:09.267Z,3.47
2017-10-14T10:54:36.750Z,3.40
2017-10-14T10:57:04.274Z,3.40
2017-10-14T10:59:31.749Z,4.03
2017-10-14T11:01:59.281Z,4.30
2017-10-14T11:04:26.813Z,3.37
2017-10-14T11:06:54.289Z,2.93
2017-10-14T11:09:21.773Z,3.23
2017-10-14T11:11:50.166Z,2.63
2017-10-14T11:14:17.642Z,2.80
2017-10-14T11:16:45.132Z,3.20
2017-10-14T11:19:12.593Z,2.77
2017-10-14T11:21:40.084Z,3.23
2017-10-14T11:24:08.462Z,2.70
2017-10-14T11:26:35.921Z,2.60
2017-10-14T11:29:03.413Z,2.00
2017-10-14T11:31:30.889Z,2.53
2017-10-14T11:33:58.381Z,2.30
2017-10-14T11:36:25.885Z,2.63
2017-10-14T11:38:53.348Z,2.30
2017-10-14T11:41:20.833Z,2.20
2017-10-14T11:43:48.319Z,2.23
2017-10-14T11:46:15.775Z,2.37
2017-10-14T11:48:43.241Z,1.93
2017-10-14T11:51:10.756Z,2.03
2017-10-14T11:53:38.250Z,2.60
2017-10-14T11:56:05.783Z,1.93
2017-10-14T11:58:33.281Z,2.50
2017-10-14T12:01:00.756Z,2.63
2017-10-14T12:03:28.212Z,2.27
2017-10-14T12:05:55.706Z,1.90
2017-10-14T12:08:23.233Z,1.87
2017-10-14T12:10:50.715Z,2.20
2017-10-14T12:13:18.221Z,1.83
2017-10-14T12:15:45.737Z,1.90
2017-10-14T12:18:13.206Z,1.80
2017-10-14T12:20:40.686Z,1.90
2017-10-14T12:23:08.203Z,1.90
2017-10-14T12:25:35.662Z,2.00
2017-10-14T12:28:03.148Z,2.13
2017-10-14T12:30:30.667Z,2.00
2017-10-14T12:32:58.156Z,1.90
2017-10-14T12:35:25.636Z,2.37
2017-10-14T12:37:53.101Z,2.50
2017-10-14T12:40:20.586Z,2.40
2017-10-14T12:42:48.081Z,2.57
2017-10-14T12:45:15.567Z,1.87
2017-10-14T12:47:43.039Z,2.27
2017-10-14T12:50:10.533Z,2.30
2017-10-14T12:52:38.024Z,1.70
2017-10-14T12:55:05.484Z,1.77
2017-10-14T12:57:32.974Z,2.00
2017-10-14T13:00:00.445Z,1.60
2017-10-14T13:02:27.920Z,1.93
2017-10-14T13:04:55.613Z,1.90
2017-10-14T13:07:23.065Z,2.00
2017-10-14T13:09:50.536Z,2.23
2017-10-14T13:12:18.102Z,2.30
2017-10-14T13:14:45.585Z,2.20
2017-10-14T13:17:13.084Z,2.60
2017-10-14T13:19:40.578Z,2.60
2017-10-14T13:22:08.043Z,2.30
2017-10-14T13:24:35.509Z,2.00
2017-10-14T13:27:03.001Z,2.20
2017-10-14T13:29:30.506Z,2.40
2017-10-14T13:31:57.981Z,1.93
2017-10-14T13:34:25.470Z,2.33
2017-10-14T13:36:52.936Z,2.10
2017-10-14T13:39:20.410Z,2.00
2017-10-14T13:41:47.953Z,2.10
2017-10-14T13:44:15.439Z,1.93
2017-10-14T13:46:42.909Z,2.50
2017-10-14T13:49:10.380Z,2.67
2017-10-14T13:51:37.852Z,2.47
2017-10-14T13:54:05.312Z,2.63
2017-10-14T13:56:32.783Z,2.53
2017-10-14T13:59:00.241Z,2.13
2017-10-14T14:01:27.723Z,2.17
2017-10-14T14:03:55.262Z,2.20
2017-10-14T14:06:22.728Z,1.90
2017-10-14T14:08:50.250Z,2.20
2017-10-14T14:11:17.721Z,2.30
2017-10-14T14:13:45.211Z,2.23
2017-10-14T14:16:12.678Z,2.20
2017-10-14T14:18:40.158Z,2.60
2017-10-14T14:21:07.661Z,2.37
2017-10-14T14:23:35.148Z,2.60
2017-10-14T14:26:02.773Z,2.43
2017-10-14T14:28:30.256Z,2.63
2017-10-14T14:30:57.785Z,3.07
2017-10-14T14:33:25.271Z,3.00
2017-10-14T14:35:52.751Z,2.40
2017-10-14T14:38:20.216Z,2.07
2017-10-14T14:40:47.707Z,2.13
2017-10-14T14:43:15.210Z,2.30
2017-10-14T14:45:42.677Z,2.20
2017-10-14T14:48:10.166Z,2.43
2017-10-14T14:50:37.659Z,2.27
2017-10-14T14:53:05.145Z,1.97
2017-10-14T14:55:32.634Z,2.70
2017-10-14T14:58:00.095Z,2.67
2017-10-14T15:00:27.564Z,1.80
2017-10-14T15:02:55.065Z,2.33
2017-10-14T15:05:22.546Z,2.67
2017-10-14T15:07:50.009Z,2.40
2017-10-14T15:10:17.500Z,2.17
2017-10-14T15:12:44.958Z,2.80
2017-10-14T15:15:12.459Z,2.33
2017-10-14T15:17:39.962Z,2.70
2017-10-14T15:20:07.439Z,2.83
2017-10-14T15:22:34.960Z,2.20
2017-10-14T15:25:02.433Z,2.43
2017-10-14T15:27:29.919Z,2.70
2017-10-14T15:29:57.375Z,2.43
2017-10-14T15:32:25.481Z,2.50
2017-10-14T15:34:52.998Z,2.97
2017-10-14T15:37:20.474Z,2.77
2017-10-14T15:39:47.961Z,2.37
2017-10-14T15:42:15.417Z,2.80
2017-10-14T15:44:42.905Z,2.50
2017-10-14T15:47:10.415Z,2.83
2017-10-14T15:49:37.878Z,3.27
2017-10-14T15:52:05.354Z,3.93
2017-10-14T15:54:32.867Z,3.70
2017-10-14T15:57:00.343Z,3.50
2017-10-14T15:59:27.827Z,3.53
2017-10-14T16:01:55.318Z,4.90
2017-10-14T16:04:22.789Z,4.00
2017-10-14T16:06:50.301Z,4.30
2017-10-14T16:09:17.788Z,4.40
2017-10-14T16:11:45.291Z,3.80
2017-10-14T16:14:12.754Z,4.23
2017-10-14T16:16:40.229Z,5.10
2017-10-14T16:19:07.690Z,5.47
2017-10-14T16:21:35.171Z,5.30
2017-10-14T16:24:02.871Z,5.40
2017-10-14T16:26:30.335Z,6.70
2017-10-14T16:28:57.793Z,5.53
2017-10-14T16:31:25.265Z,6.30
2017-10-14T16:33:52.752Z,6.40
2017-10-14T16:36:20.235Z,6.60
2017-10-14T16:38:47.713Z,6.53
2017-10-14T16:41:15.165Z,6.47
2017-10-14T16:43:42.635Z,6.67
2017-10-14T16:46:10.112Z,6.70
2017-10-14T16:48:37.589Z,6.97
2017-10-14T16:51:05.461Z,6.70
2017-10-14T16:53:32.936Z,7.30
2017-10-14T16:56:00.417Z,7.37
2017-10-14T16:58:27.915Z,6.47
2017-10-14T17:00:55.392Z,6.93
2017-10-14T17:03:22.910Z,9.23
2017-10-14T17:05:50.368Z,7.90
2017-10-14T17:08:17.893Z,8.53
2017-10-14T17:10:45.406Z,8.30
2017-10-14T17:13:12.901Z,8.50
2017-10-14T17:15:41.386Z,8.90
2017-10-14T17:18:08.865Z,9.90
2017-10-14T17:20:36.324Z,7.27
2017-10-14T17:23:03.825Z,11.07
2017-10-14T17:25:31.297Z,9.10
2017-10-14T17:27:58.777Z,8.87
2017-10-14T17:30:26.319Z,10.63
2017-10-14T17:32:53.945Z,9.83
2017-10-14T17:35:21.437Z,11.63
2017-10-14T17:37:48.923Z,10.60
2017-10-14T17:40:16.389Z,10.40
2017-10-14T17:42:43.852Z,10.60
2017-10-14T17:45:12.682Z,12.20
2017-10-14T17:47:40.146Z,12.60
2017-10-14T17:50:07.617Z,12.87
2017-10-14T17:52:35.121Z,12.73
2017-10-14T17:55:02.606Z,12.27
2017-10-14T17:57:30.090Z,11.27
2017-10-14T17:59:57.568Z,11.83
2017-10-14T18:02:25.061Z,11.50
2017-10-14T18:04:52.606Z,11.60
2017-10-14T18:07:20.116Z,11.57
2017-10-14T18:09:47.578Z,10.93
2017-10-14T18:12:15.081Z,11.20
2017-10-14T18:14:42.592Z,10.93
2017-10-14T18:17:10.049Z,12.03
2017-10-14T18:19:37.550Z,11.97
2017-10-14T18:22:06.356Z,11.83
2017-10-14T18:24:33.847Z,11.00
2017-10-14T18:27:01.345Z,10.90
2017-10-14T18:29:28.848Z,11.30
2017-10-14T18:31:56.326Z,10.87
2017-10-14T18:34:23.804Z,10.60
2017-10-14T18:36:51.311Z,10.50
2017-10-14T18:39:18.808Z,11.13
2017-10-14T18:41:46.305Z,11.30
2017-10-14T18:44:13.817Z,10.43
2017-10-14T18:46:41.348Z,10.57
2017-10-14T18:49:08.816Z,11.33
2017-10-14T18:51:36.316Z,11.63
2017-10-14T18:54:03.794Z,12.03
2017-10-14T18:56:31.303Z,12.57
2017-10-14T18:58:58.796Z,11.03
2017-10-14T19:01:26.302Z,9.60
2017-10-14T19:03:53.780Z,10.70
2017-10-14T19:06:21.353Z,11.00
2017-10-14T19:08:48.848Z,11.00
2017-10-14T19:11:16.364Z,10.93
2017-10-14T19:13:43.902Z,12.50
2017-10-14T19:16:11.393Z,10.70
2017-10-14T19:18:38.895Z,10.20
2017-10-14T19:21:06.407Z,11.90
2017-10-14T19:23:33.894Z,12.10
2017-10-14T19:26:01.371Z,11.50
2017-10-14T19:28:28.960Z,11.00
2017-10-14T19:31:00.179Z,14.47
2017-10-14T19:33:27.732Z,13.00
2017-10-14T19:35:55.227Z,13.10
2017-10-14T19:38:22.717Z,12.97
2017-10-14T19:40:50.188Z,13.40
2017-10-14T19:43:18.718Z,12.13
2017-10-14T19:45:46.213Z,13.57
2017-10-14T19:48:13.705Z,14.60
2017-10-14T19:50:41.178Z,14.07
2017-10-14T19:53:08.662Z,11.97
2017-10-14T19:55:36.188Z,12.30
2017-10-14T19:58:03.682Z,11.70
2017-10-14T20:00:34.051Z,11.80
2017-10-14T20:03:01.527Z,12.10
2017-10-14T20:05:29.016Z,12.00
2017-10-14T20:07:56.484Z,13.90
2017-10-14T20:10:24.003Z,12.03
2017-10-14T20:12:51.584Z,12.10
2017-10-14T20:15:19.063Z,11.90
2017-10-14T20:17:46.545Z,12.13
2017-10-14T20:20:14.045Z,11.83
2017-10-14T20:22:41.529Z,12.50
2017-10-14T20:25:09.007Z,11.53
2017-10-14T20:27:36.596Z,11.70
2017-10-14T20:30:04.188Z,11.30
2017-10-14T20:32:31.659Z,11.17
2017-10-14T20:34:59.150Z,11.03
2017-10-14T20:37:26.620Z,12.73
2017-10-14T20:39:54.093Z,12.13
2017-10-14T20:42:21.564Z,11.53
2017-10-14T20:44:49.041Z,10.90
2017-10-14T20:47:16.508Z,11.20
2017-10-14T20:49:44.008Z,10.70
2017-10-14T20:52:11.593Z,10.47
2017-10-14T20:54:39.063Z,10.20
2017-10-14T20:57:06.596Z,10.17
2017-10-14T20:59:34.071Z,9.77
2017-10-14T21:02:01.531Z,11.20
2017-10-14T21:04:29.046Z,10.10
2017-10-14T21:06:56.589Z,11.07
2017-10-14T21:09:24.058Z,9.47
2017-10-14T21:11:51.601Z,10.90
2017-10-14T21:14:19.077Z,10.60
2017-10-14T21:16:46.559Z,9.07
2017-10-14T21:19:14.035Z,9.60
2017-10-14T21:21:41.954Z,9.17
2017-10-14T21:24:09.420Z,9.83
2017-10-14T21:26:36.961Z,9.70
2017-10-14T21:29:04.425Z,9.27
2017-10-14T21:31:32.219Z,10.07
2017-10-14T21:33:59.962Z,8.30
2017-10-14T21:36:27.446Z,9.90
2017-10-14T21:38:54.934Z,9.77
2017-10-14T21:41:22.439Z,9.70
2017-10-14T21:43:49.923Z,9.70
2017-10-14T21:46:17.416Z,10.00
2017-10-14T21:48:45.007Z,8.87
2017-10-14T21:51:12.646Z,9.70
2017-10-14T21:53:40.119Z,10.73
2017-10-14T21:56:07.904Z,9.93
2017-10-14T21:58:35.378Z,11.30
2017-10-14T22:01:04.296Z,10.60
2017-10-14T22:03:31.843Z,11.20
2017-10-14T22:05:59.308Z,10.53
2017-10-14T22:08:26.782Z,10.00
2017-10-14T22:10:54.814Z,9.77
2017-10-14T22:13:22.295Z,10.17
2017-10-14T22:15:49.788Z,11.30
2017-10-14T22:18:17.273Z,10.40
2017-10-14T22:20:44.758Z,11.07
2017-10-14T22:23:12.235Z,10.10
2017-10-14T22:25:39.771Z,10.53
2017-10-14T22:28:07.267Z,10.40
2017-10-14T22:30:34.776Z,10.90
2017-10-14T22:33:02.245Z,9.43
2017-10-14T22:35:29.731Z,9.67
2017-10-14T22:37:57.192Z,10.13
2017-10-14T22:40:24.687Z,9.33
2017-10-14T22:42:52.174Z,9.77
2017-10-14T22:45:19.646Z,10.80
2017-10-14T22:47:47.136Z,10.70
2017-10-14T22:50:14.681Z,9.77
2017-10-14T22:52:42.190Z,11.00
2017-10-14T22:55:09.676Z,9.03
2017-10-14T22:57:37.153Z,10.43
2017-10-14T23:00:04.607Z,8.90
2017-10-14T23:02:32.082Z,9.20
2017-10-14T23:04:59.568Z,9.80
2017-10-14T23:07:27.027Z,9.70
2017-10-14T23:09:55.346Z,10.00
2017-10-14T23:12:22.817Z,8.73
2017-10-14T23:14:50.274Z,8.77
2017-10-14T23:17:17.860Z,9.83
2017-10-14T23:19:45.336Z,9.60
2017-10-14T23:22:12.811Z,8.83
2017-10-14T23:24:40.370Z,10.20
2017-10-14T23:27:07.848Z,9.80
2017-10-14T23:29:35.318Z,8.57
2017-10-14T23:32:03.031Z,9.00
2017-10-14T23:34:30.481Z,9.73
2017-10-14T23:36:57.945Z,10.20
2017-10-14T23:39:25.427Z,9.50
2017-10-14T23:41:52.889Z,9.23
2017-10-14T23:44:20.345Z,9.10
2017-10-14T23:46:47.819Z,9.63
2017-10-14T23:49:16.211Z,9.07
2017-10-14T23:51:43.681Z,8.70
2017-10-14T23:54:11.161Z,9.27
2017-10-14T23:56:38.646Z,9.00
2017-10-14T23:59:06.116Z,9.37
